createdAt,value
2022-09-17T00:01:21.447Z,54.13
2022-09-17T00:03:53.785Z,55.16
2022-09-17T00:06:22.990Z,55.08
2022-09-17T00:08:50.595Z,53.12
2022-09-17T00:11:28.893Z,52.58
2022-09-17T00:13:57.768Z,54.33
2022-09-17T00:16:32.339Z,53.31
2022-09-17T00:19:00.580Z,53.94
2022-09-17T00:21:28.633Z,52.76
2022-09-17T00:24:03.370Z,54.27
2022-09-17T00:26:31.167Z,54.33
2022-09-17T00:28:59.140Z,53.35
2022-09-17T00:31:27.536Z,54.46
2022-09-17T00:33:54.785Z,54.59
2022-09-17T00:36:21.943Z,54.35
2022-09-17T00:38:53.533Z,53.42
2022-09-17T00:41:22.796Z,53.15
2022-09-17T00:43:55.921Z,53.18
2022-09-17T00:46:22.672Z,52.57
2022-09-17T00:48:51.116Z,52.94
2022-09-17T00:51:22.916Z,52.80
2022-09-17T00:53:49.702Z,53.42
2022-09-17T00:56:20.029Z,53.33
2022-09-17T00:58:47.144Z,52.30
2022-09-17T01:01:14.380Z,51.96
2022-09-17T01:03:41.548Z,52.92
2022-09-17T01:06:25.573Z,52.82
2022-09-17T01:09:31.061Z,52.19
2022-09-17T01:12:21.195Z,52.17
2022-09-17T01:15:03.379Z,53.91
2022-09-17T01:17:30.163Z,52.04
2022-09-17T01:20:30.686Z,54.98
2022-09-17T01:23:12.567Z,53.76
2022-09-17T01:26:04.674Z,53.53
2022-09-17T01:28:58.861Z,52.76
2022-09-17T01:31:30.562Z,54.21
2022-09-17T01:34:12.300Z,54.26
2022-09-17T01:36:43.950Z,53.54
2022-09-17T01:39:44.545Z,55.42
2022-09-17T01:42:20.002Z,55.08
2022-09-17T01:45:09.981Z,55.13
2022-09-17T01:47:47.519Z,53.33
2022-09-17T01:50:25.681Z,53.96
2022-09-17T01:52:55.429Z,54.60
2022-09-17T01:55:26.753Z,53.23
2022-09-17T01:57:56.043Z,53.28
2022-09-17T02:00:23.641Z,53.63
2022-09-17T02:03:05.886Z,54.35
2022-09-17T02:05:44.106Z,54.02
2022-09-17T02:08:28.795Z,55.59
2022-09-17T02:11:05.454Z,55.03
2022-09-17T02:13:38.292Z,54.67
2022-09-17T02:16:12.992Z,56.56
2022-09-17T02:18:50.891Z,56.09
2022-09-17T02:21:43.150Z,57.34
2022-09-17T02:24:10.030Z,56.64
2022-09-17T02:26:45.878Z,54.73
2022-09-17T02:29:30.898Z,55.87
2022-09-17T02:31:58.009Z,57.36
2022-09-17T02:34:27.742Z,56.11
2022-09-17T02:37:01.297Z,54.49
2022-09-17T02:39:28.703Z,54.29
2022-09-17T02:42:23.374Z,54.21
2022-09-17T02:45:15.053Z,53.19
2022-09-17T02:48:02.591Z,54.13
2022-09-17T02:50:42.485Z,52.90
2022-09-17T02:53:31.254Z,53.55
2022-09-17T02:56:25.509Z,53.42
2022-09-17T02:59:19.860Z,53.49
2022-09-17T03:01:52.571Z,56.59
2022-09-17T03:04:22.528Z,55.74
2022-09-17T03:06:52.176Z,54.38
2022-09-17T03:09:18.964Z,54.58
2022-09-17T03:11:47.182Z,53.91
2022-09-17T03:14:13.858Z,53.69
2022-09-17T03:16:40.650Z,53.21
2022-09-17T03:19:07.371Z,53.20
2022-09-17T03:21:34.240Z,52.62
2022-09-17T03:24:01.190Z,54.26
2022-09-17T03:26:27.985Z,53.30
2022-09-17T03:28:55.732Z,53.78
2022-09-17T03:31:22.677Z,55.96
2022-09-17T03:33:50.229Z,56.02
2022-09-17T03:36:16.969Z,55.62
2022-09-17T03:38:43.924Z,57.38
2022-09-17T03:41:11.428Z,55.09
2022-09-17T03:43:39.862Z,55.56
2022-09-17T03:46:06.784Z,57.66
2022-09-17T03:48:37.139Z,55.87
2022-09-17T03:51:04.652Z,57.46
2022-09-17T03:53:32.071Z,58.20
2022-09-17T03:56:01.661Z,57.29
2022-09-17T03:58:30.537Z,56.47
2022-09-17T04:00:57.844Z,57.30
2022-09-17T04:03:26.088Z,57.33
2022-09-17T04:05:53.092Z,55.10
2022-09-17T04:08:20.698Z,53.89
2022-09-17T04:10:48.017Z,53.56
2022-09-17T04:13:16.378Z,53.68
2022-09-17T04:15:43.460Z,53.47
2022-09-17T04:18:10.604Z,54.34
2022-09-17T04:20:37.490Z,54.09
2022-09-17T04:23:04.632Z,54.64
2022-09-17T04:25:32.774Z,54.04
2022-09-17T04:27:59.597Z,53.96
2022-09-17T04:30:26.535Z,53.95
2022-09-17T04:32:53.261Z,54.28
2022-09-17T04:35:19.931Z,55.15
2022-09-17T04:37:53.417Z,54.91
2022-09-17T04:40:21.222Z,53.59
2022-09-17T04:42:47.884Z,54.13
2022-09-17T04:45:14.743Z,54.89
2022-09-17T04:47:41.724Z,55.74
2022-09-17T04:50:08.866Z,55.33
2022-09-17T04:52:35.606Z,55.05
2022-09-17T04:55:02.481Z,56.21
2022-09-17T04:57:29.283Z,57.49
2022-09-17T04:59:55.919Z,57.30
2022-09-17T05:02:22.924Z,55.39
2022-09-17T05:04:50.711Z,57.58
2022-09-17T05:07:17.516Z,55.64
2022-09-17T05:09:44.259Z,56.20
2022-09-17T05:12:11.131Z,56.69
2022-09-17T05:14:37.817Z,56.35
2022-09-17T05:17:04.780Z,56.83
2022-09-17T05:19:31.462Z,56.05
2022-09-17T05:21:58.498Z,56.49
2022-09-17T05:24:25.408Z,54.48
2022-09-17T05:26:52.191Z,55.13
2022-09-17T05:29:18.920Z,54.23
2022-09-17T05:31:45.707Z,54.51
2022-09-17T05:34:12.676Z,54.47
2022-09-17T05:36:39.484Z,54.02
2022-09-17T05:39:06.289Z,56.67
2022-09-17T05:41:34.266Z,56.18
2022-09-17T05:44:01.191Z,57.23
2022-09-17T05:46:28.201Z,55.95
2022-09-17T05:48:58.042Z,55.10
2022-09-17T05:51:25.102Z,55.48
2022-09-17T05:53:54.469Z,55.42
2022-09-17T05:56:21.984Z,55.50
2022-09-17T05:58:48.730Z,54.60
2022-09-17T06:01:16.401Z,56.60
2022-09-17T06:03:43.147Z,55.77
2022-09-17T06:06:10.919Z,56.32
2022-09-17T06:08:37.893Z,57.24
2022-09-17T06:11:05.981Z,57.45
2022-09-17T06:13:33.829Z,57.02
2022-09-17T06:16:02.173Z,57.72
2022-09-17T06:18:30.835Z,57.08
2022-09-17T06:21:02.912Z,56.48
2022-09-17T06:23:37.286Z,57.85
2022-09-17T06:26:06.122Z,57.27
2022-09-17T06:28:34.271Z,58.97
2022-09-17T06:31:04.721Z,56.66
2022-09-17T06:33:32.950Z,56.66
2022-09-17T06:36:02.994Z,57.29
2022-09-17T06:38:32.224Z,57.24
2022-09-17T06:40:59.248Z,57.63
2022-09-17T06:43:26.629Z,56.51
2022-09-17T06:46:00.128Z,57.43
2022-09-17T06:48:29.694Z,56.34
2022-09-17T06:51:01.800Z,55.66
2022-09-17T06:53:29.701Z,57.05
2022-09-17T06:56:06.016Z,56.21
2022-09-17T06:58:34.821Z,55.66
2022-09-17T07:01:02.377Z,57.68
2022-09-17T07:03:30.873Z,56.15
2022-09-17T07:05:58.403Z,56.31
2022-09-17T07:08:26.247Z,57.72
2022-09-17T07:10:57.235Z,57.09
2022-09-17T07:13:24.720Z,56.08
2022-09-17T07:15:55.913Z,55.58
2022-09-17T07:18:23.463Z,56.52
2022-09-17T07:21:10.252Z,55.19
2022-09-17T07:23:38.098Z,58.14
2022-09-17T07:26:08.948Z,57.05
2022-09-17T07:28:39.595Z,56.44
2022-09-17T07:31:06.717Z,54.96
2022-09-17T07:33:34.919Z,55.27
2022-09-17T07:36:03.833Z,54.10
2022-09-17T07:38:31.359Z,55.40
2022-09-17T07:41:06.165Z,56.83
2022-09-17T07:43:35.377Z,55.81
2022-09-17T07:46:04.836Z,53.65
2022-09-17T07:48:32.151Z,52.71
2022-09-17T07:50:59.075Z,50.61
2022-09-17T07:53:26.140Z,50.59
2022-09-17T07:55:53.899Z,49.98
2022-09-17T07:58:25.039Z,50.17
2022-09-17T08:00:51.921Z,50.75
2022-09-17T08:03:18.866Z,49.18
2022-09-17T08:05:45.847Z,48.53
2022-09-17T08:08:13.656Z,48.90
2022-09-17T08:10:41.017Z,49.91
2022-09-17T08:13:07.866Z,50.17
2022-09-17T08:15:37.791Z,50.34
2022-09-17T08:18:04.771Z,50.31
2022-09-17T08:20:31.410Z,49.63
2022-09-17T08:22:59.866Z,48.91
2022-09-17T08:25:27.319Z,48.13
2022-09-17T08:27:56.558Z,47.78
2022-09-17T08:30:23.789Z,48.44
2022-09-17T08:32:50.680Z,48.56
2022-09-17T08:35:17.838Z,48.03
2022-09-17T08:37:44.956Z,48.60
2022-09-17T08:40:19.495Z,47.68
2022-09-17T08:43:00.322Z,47.20
2022-09-17T08:45:27.611Z,45.42
2022-09-17T08:48:01.297Z,44.73
2022-09-17T08:50:34.216Z,45.43
2022-09-17T08:53:08.949Z,45.11
2022-09-17T08:55:53.666Z,46.43
2022-09-17T08:58:20.450Z,45.15
2022-09-17T09:01:29.220Z,44.81
2022-09-17T09:04:00.604Z,45.80
2022-09-17T09:06:32.842Z,46.21
2022-09-17T09:09:15.253Z,45.32
2022-09-17T09:11:44.069Z,46.85
2022-09-17T09:14:24.533Z,48.04
2022-09-17T09:16:54.371Z,47.81
2022-09-17T09:19:34.067Z,49.62
2022-09-17T09:22:13.729Z,48.31
2022-09-17T09:25:12.263Z,48.58
2022-09-17T09:27:55.710Z,49.10
2022-09-17T09:30:24.397Z,49.25
2022-09-17T09:33:05.444Z,48.79
2022-09-17T09:35:36.414Z,50.21
2022-09-17T09:38:09.315Z,51.46
2022-09-17T09:40:55.311Z,51.45
2022-09-17T09:44:04.125Z,50.20
2022-09-17T09:46:49.942Z,50.76
2022-09-17T09:49:40.670Z,52.11
2022-09-17T09:52:49.326Z,51.30
2022-09-17T09:55:37.779Z,52.06
2022-09-17T09:58:32.671Z,51.74
2022-09-17T10:00:59.707Z,52.90
2022-09-17T10:03:32.250Z,53.80
2022-09-17T10:06:10.913Z,54.83
2022-09-17T10:08:40.763Z,55.67
2022-09-17T10:11:21.729Z,55.74
2022-09-17T10:13:48.692Z,56.42
2022-09-17T10:16:29.484Z,55.42
2022-09-17T10:19:05.621Z,54.49
2022-09-17T10:21:34.988Z,57.48
2022-09-17T10:24:03.776Z,57.13
2022-09-17T10:26:36.645Z,55.39
2022-09-17T10:29:14.260Z,56.33
2022-09-17T10:31:52.859Z,57.93
2022-09-17T10:34:26.067Z,56.60
2022-09-17T10:36:54.749Z,55.73
2022-09-17T10:39:27.271Z,55.99
2022-09-17T10:42:14.279Z,55.76
2022-09-17T10:44:56.027Z,56.85
2022-09-17T10:47:29.113Z,56.72
2022-09-17T10:50:18.027Z,55.84
2022-09-17T10:52:52.880Z,56.60
2022-09-17T10:55:39.286Z,55.20
2022-09-17T10:58:06.385Z,56.67
2022-09-17T11:01:16.441Z,55.26
2022-09-17T11:04:02.088Z,54.80
2022-09-17T11:06:50.064Z,54.44
2022-09-17T11:09:34.760Z,52.95
2022-09-17T11:12:02.020Z,53.68
2022-09-17T11:14:41.442Z,53.97
2022-09-17T11:17:23.972Z,53.17
2022-09-17T11:20:06.055Z,53.03
2022-09-17T11:23:01.917Z,53.56
2022-09-17T11:25:28.890Z,52.57
2022-09-17T11:28:16.696Z,53.92
2022-09-17T11:30:55.534Z,54.96
2022-09-17T11:33:50.911Z,55.14
2022-09-17T11:36:23.478Z,54.57
2022-09-17T11:38:51.486Z,56.39
2022-09-17T11:41:26.297Z,54.51
2022-09-17T11:44:10.363Z,53.65
2022-09-17T11:46:45.656Z,54.46
2022-09-17T11:49:16.797Z,54.38
2022-09-17T11:51:48.989Z,54.16
2022-09-17T11:54:33.817Z,54.56
2022-09-17T11:57:07.645Z,53.69
2022-09-17T11:59:55.333Z,53.04
2022-09-17T12:02:44.735Z,53.04
2022-09-17T12:05:37.975Z,53.26
2022-09-17T12:08:25.432Z,54.28
2022-09-17T12:11:13.369Z,53.38
2022-09-17T12:13:45.872Z,53.21
2022-09-17T12:16:31.417Z,54.24
2022-09-17T12:19:18.649Z,56.40
2022-09-17T12:22:11.913Z,54.66
2022-09-17T12:24:39.474Z,56.08
2022-09-17T12:27:48.101Z,55.07
2022-09-17T12:30:32.530Z,53.28
2022-09-17T12:33:14.664Z,53.52
2022-09-17T12:36:16.162Z,54.40
2022-09-17T12:39:10.411Z,53.51
2022-09-17T12:41:54.514Z,53.16
2022-09-17T12:44:24.351Z,52.66
2022-09-17T12:47:22.488Z,53.79
2022-09-17T12:49:58.127Z,54.82
2022-09-17T12:52:54.263Z,55.52
2022-09-17T12:55:40.265Z,55.36
2022-09-17T12:58:21.014Z,54.43
2022-09-17T13:01:01.977Z,54.17
2022-09-17T13:04:13.197Z,53.33
2022-09-17T13:07:07.964Z,54.03
2022-09-17T13:09:45.456Z,55.66
2022-09-17T13:12:25.378Z,55.25
2022-09-17T13:15:17.635Z,54.08
2022-09-17T13:18:12.847Z,54.35
2022-09-17T13:20:44.939Z,53.60
2022-09-17T13:23:12.819Z,55.46
2022-09-17T13:25:53.256Z,54.53
2022-09-17T13:28:20.014Z,54.10
2022-09-17T13:31:01.556Z,53.53
2022-09-17T13:33:51.707Z,54.00
2022-09-17T13:36:48.698Z,57.34
2022-09-17T13:39:56.142Z,56.37
2022-09-17T13:42:29.535Z,55.91
2022-09-17T13:45:16.199Z,54.55
2022-09-17T13:48:01.610Z,54.30
2022-09-17T13:50:33.021Z,54.09
2022-09-17T13:53:26.856Z,53.55
2022-09-17T13:55:58.690Z,53.49
2022-09-17T13:58:27.984Z,53.24
2022-09-17T14:01:04.910Z,53.22
2022-09-17T14:03:33.631Z,53.04
2022-09-17T14:06:10.929Z,53.66
2022-09-17T14:08:43.779Z,53.27
2022-09-17T14:11:23.075Z,52.31
2022-09-17T14:13:51.066Z,51.63
2022-09-17T14:16:40.512Z,51.20
2022-09-17T14:19:16.886Z,51.85
2022-09-17T14:22:00.740Z,53.70
2022-09-17T14:24:42.734Z,53.26
2022-09-17T14:27:12.300Z,53.06
2022-09-17T14:29:48.802Z,54.47
2022-09-17T14:32:33.139Z,54.44
2022-09-17T14:35:20.106Z,57.48
2022-09-17T14:37:54.827Z,57.44
2022-09-17T14:40:24.127Z,56.47
2022-09-17T14:42:57.520Z,56.00
2022-09-17T14:45:28.598Z,56.90
2022-09-17T14:48:26.363Z,56.89
2022-09-17T14:51:11.271Z,56.74
2022-09-17T14:53:39.551Z,56.43
2022-09-17T14:56:11.487Z,54.83
2022-09-17T14:58:43.181Z,55.77
2022-09-17T15:01:25.137Z,56.34
2022-09-17T15:04:21.084Z,55.34
2022-09-17T15:06:48.108Z,54.72
2022-09-17T15:09:19.076Z,54.33
2022-09-17T15:11:50.057Z,53.20
2022-09-17T15:14:20.985Z,53.90
2022-09-17T15:16:51.635Z,54.64
2022-09-17T15:19:23.957Z,54.92
2022-09-17T15:21:55.223Z,53.11
2022-09-17T15:24:40.541Z,53.12
2022-09-17T15:27:24.862Z,53.00
2022-09-17T15:29:56.953Z,52.25
2022-09-17T15:32:24.190Z,52.98
2022-09-17T15:35:15.817Z,51.60
2022-09-17T15:37:46.691Z,51.70
2022-09-17T15:40:32.153Z,52.96
2022-09-17T15:43:06.225Z,52.35
2022-09-17T15:45:39.243Z,52.28
2022-09-17T15:48:10.954Z,54.60
2022-09-17T15:50:52.416Z,53.27
2022-09-17T15:53:27.686Z,53.00
2022-09-17T15:56:13.348Z,54.42
2022-09-17T15:58:42.832Z,53.38
2022-09-17T16:01:15.860Z,53.65
2022-09-17T16:03:45.703Z,53.78
2022-09-17T16:06:18.248Z,53.86
2022-09-17T16:09:25.370Z,55.43
2022-09-17T16:11:52.254Z,57.37
2022-09-17T16:14:19.000Z,55.29
2022-09-17T16:16:48.025Z,53.89
2022-09-17T16:19:16.777Z,54.71
2022-09-17T16:21:43.724Z,54.12
2022-09-17T16:24:10.739Z,53.53
2022-09-17T16:26:38.207Z,56.72
2022-09-17T16:29:07.793Z,53.85
2022-09-17T16:31:34.773Z,55.27
2022-09-17T16:34:01.752Z,54.82
2022-09-17T16:36:31.175Z,54.72
2022-09-17T16:38:58.759Z,55.45
2022-09-17T16:41:25.564Z,55.96
2022-09-17T16:43:52.301Z,54.34
2022-09-17T16:46:19.343Z,53.75
2022-09-17T16:48:50.308Z,53.61
2022-09-17T16:51:17.765Z,53.13
2022-09-17T16:53:44.573Z,52.85
2022-09-17T16:56:14.337Z,52.50
2022-09-17T16:58:41.771Z,52.39
2022-09-17T17:01:14.959Z,52.36
2022-09-17T17:03:42.817Z,52.75
2022-09-17T17:06:17.128Z,54.38
2022-09-17T17:08:44.314Z,53.36
2022-09-17T17:11:11.293Z,52.89
2022-09-17T17:13:38.132Z,53.50
2022-09-17T17:16:14.126Z,52.67
2022-09-17T17:18:44.944Z,53.28
2022-09-17T17:21:14.038Z,52.36
2022-09-17T17:23:43.563Z,52.64
2022-09-17T17:26:10.323Z,53.71
2022-09-17T17:28:37.853Z,52.69
2022-09-17T17:31:05.020Z,52.92
2022-09-17T17:33:32.225Z,52.52
2022-09-17T17:36:08.095Z,53.15
2022-09-17T17:38:36.615Z,53.28
2022-09-17T17:41:12.282Z,52.57
2022-09-17T17:43:40.130Z,52.58
2022-09-17T17:46:09.110Z,52.79
2022-09-17T17:48:36.734Z,52.12
2022-09-17T17:51:05.716Z,51.74
2022-09-17T17:53:32.579Z,52.69
2022-09-17T17:56:01.632Z,52.56
2022-09-17T17:58:29.401Z,51.96
2022-09-17T18:00:56.332Z,52.98
2022-09-17T18:03:26.497Z,52.17
2022-09-17T18:05:56.500Z,52.00
2022-09-17T18:08:26.007Z,52.84
2022-09-17T18:10:54.748Z,52.05
2022-09-17T18:13:22.957Z,52.37
2022-09-17T18:15:58.746Z,51.72
2022-09-17T18:18:30.808Z,51.98
2022-09-17T18:21:01.887Z,52.52
2022-09-17T18:23:30.009Z,51.74
2022-09-17T18:25:59.287Z,54.37
2022-09-17T18:28:28.132Z,52.40
2022-09-17T18:30:54.997Z,51.96
2022-09-17T18:33:27.035Z,53.44
2022-09-17T18:35:57.267Z,56.99
2022-09-17T18:38:24.486Z,54.87
2022-09-17T18:40:51.683Z,52.57
2022-09-17T18:43:19.035Z,52.44
2022-09-17T18:45:56.584Z,51.35
2022-09-17T18:48:24.921Z,50.80
2022-09-17T18:51:01.605Z,51.33
2022-09-17T18:53:30.282Z,51.62
2022-09-17T18:56:08.704Z,51.35
2022-09-17T18:58:35.649Z,51.53
2022-09-17T19:01:08.468Z,52.10
2022-09-17T19:03:35.329Z,51.88
2022-09-17T19:06:04.270Z,51.51
2022-09-17T19:08:31.243Z,51.23
2022-09-17T19:10:58.764Z,50.82
2022-09-17T19:13:26.811Z,52.06
2022-09-17T19:16:02.648Z,50.59
2022-09-17T19:18:30.175Z,51.71
2022-09-17T19:21:08.055Z,52.42
2022-09-17T19:23:35.900Z,51.61
2022-09-17T19:26:10.577Z,51.63
2022-09-17T19:28:37.744Z,51.92
2022-09-17T19:31:09.580Z,51.70
2022-09-17T19:33:36.688Z,52.51
2022-09-17T19:36:06.750Z,52.74
2022-09-17T19:38:33.674Z,52.51
2022-09-17T19:41:03.410Z,52.26
2022-09-17T19:43:30.830Z,54.45
2022-09-17T19:46:06.638Z,52.24
2022-09-17T19:48:36.266Z,51.79
2022-09-17T19:51:04.858Z,54.23
2022-09-17T19:53:32.967Z,53.25
2022-09-17T19:56:00.981Z,52.65
2022-09-17T19:58:27.921Z,52.62
2022-09-17T20:00:56.162Z,51.69
2022-09-17T20:03:23.428Z,52.09
2022-09-17T20:05:50.203Z,52.20
2022-09-17T20:08:17.050Z,52.42
2022-09-17T20:10:44.073Z,52.02
2022-09-17T20:13:10.770Z,52.46
2022-09-17T20:15:37.869Z,52.67
2022-09-17T20:18:04.773Z,52.12
2022-09-17T20:20:31.594Z,51.79
2022-09-17T20:22:58.386Z,53.31
2022-09-17T20:25:25.774Z,53.46
2022-09-17T20:27:53.298Z,54.54
2022-09-17T20:30:20.324Z,54.86
2022-09-17T20:32:48.129Z,57.40
2022-09-17T20:35:15.344Z,54.41
2022-09-17T20:38:44.415Z,53.16
2022-09-17T20:40:30.446Z,53.61
2022-09-17T20:42:57.159Z,52.98
2022-09-17T20:45:23.949Z,52.44
2022-09-17T20:47:51.201Z,53.45
2022-09-17T20:50:18.071Z,53.10
2022-09-17T20:52:44.804Z,54.96
2022-09-17T20:55:12.010Z,53.49
2022-09-17T20:57:38.778Z,53.51
2022-09-17T21:00:18.012Z,56.17
2022-09-17T21:02:50.547Z,55.35
2022-09-17T21:05:18.661Z,53.86
2022-09-17T21:07:45.715Z,53.72
2022-09-17T21:10:13.477Z,54.26
2022-09-17T21:12:40.597Z,55.07
2022-09-17T21:15:07.738Z,53.85
2022-09-17T21:17:34.731Z,53.43
2022-09-17T21:20:02.059Z,54.50
2022-09-17T21:22:29.056Z,53.95
2022-09-17T21:24:55.733Z,56.25
2022-09-17T21:27:22.488Z,55.57
2022-09-17T21:29:49.215Z,54.97
2022-09-17T21:32:16.148Z,56.93
2022-09-17T21:34:42.926Z,54.92
2022-09-17T21:37:10.928Z,54.49
2022-09-17T21:39:37.698Z,55.22
2022-09-17T21:42:04.818Z,54.47
2022-09-17T21:44:31.681Z,55.31
2022-09-17T21:46:58.522Z,55.02
2022-09-17T21:49:25.502Z,55.39
2022-09-17T21:51:52.251Z,54.95
2022-09-17T21:54:19.304Z,54.59
2022-09-17T21:56:46.579Z,54.34
2022-09-17T21:59:15.418Z,53.65
2022-09-17T22:01:46.594Z,53.49
2022-09-17T22:04:17.609Z,56.73
2022-09-17T22:06:46.054Z,54.99
2022-09-17T22:09:18.998Z,54.29
2022-09-17T22:11:46.125Z,53.31
2022-09-17T22:14:16.635Z,53.21
2022-09-17T22:16:45.049Z,54.08
2022-09-17T22:19:14.680Z,54.07
2022-09-17T22:21:47.484Z,53.83
2022-09-17T22:24:19.181Z,53.08
2022-09-17T22:26:50.703Z,53.65
2022-09-17T22:29:22.144Z,54.97
2022-09-17T22:31:49.484Z,52.77
2022-09-17T22:34:19.836Z,52.07
2022-09-17T22:36:48.247Z,52.27
2022-09-17T22:39:15.570Z,52.25
2022-09-17T22:41:45.878Z,51.35
2022-09-17T22:44:15.767Z,51.59
2022-09-17T22:46:42.829Z,51.92
2022-09-17T22:49:11.201Z,53.28
2022-09-17T22:51:40.356Z,51.70
2022-09-17T22:54:10.273Z,51.69
2022-09-17T22:56:37.221Z,51.87
2022-09-17T22:59:04.812Z,52.95
2022-09-17T23:01:34.026Z,52.75
2022-09-17T23:04:01.900Z,52.64
2022-09-17T23:06:30.983Z,51.67
2022-09-17T23:08:58.553Z,51.23
2022-09-17T23:11:34.092Z,52.14
2022-09-17T23:14:03.618Z,52.38
2022-09-17T23:16:35.539Z,55.12
2022-09-17T23:19:21.369Z,52.79
2022-09-17T23:21:48.671Z,54.88
2022-09-17T23:24:20.280Z,54.22
2022-09-17T23:26:47.693Z,52.42
2022-09-17T23:29:14.665Z,51.24
2022-09-17T23:31:41.667Z,51.76
2022-09-17T23:34:08.437Z,50.79
2022-09-17T23:36:38.086Z,50.29
2022-09-17T23:39:06.752Z,51.30
2022-09-17T23:41:40.050Z,50.93
2022-09-17T23:44:14.571Z,50.01
2022-09-17T23:46:43.580Z,49.81
2022-09-17T23:49:11.865Z,49.92
2022-09-17T23:51:39.452Z,50.55
2022-09-17T23:54:07.269Z,49.92
2022-09-17T23:56:35.090Z,49.75
2022-09-17T23:59:02.308Z,50.16
